createdAt,value
2023-05-31T00:00:37.595Z,654.00
2023-05-31T00:01:37.784Z,652.00
2023-05-31T00:02:37.751Z,658.00
2023-05-31T00:03:37.801Z,654.00
2023-05-31T00:04:37.802Z,660.00
2023-05-31T00:05:37.831Z,661.00
2023-05-31T00:06:37.906Z,652.00
2023-05-31T00:07:37.920Z,652.00
2023-05-31T00:08:37.957Z,655.00
2023-05-31T00:09:37.985Z,652.00
2023-05-31T00:10:38.088Z,646.00
2023-05-31T00:11:38.160Z,651.00
2023-05-31T00:12:38.147Z,645.00
2023-05-31T00:13:38.185Z,650.00
2023-05-31T00:14:38.241Z,645.00
2023-05-31T00:15:38.282Z,651.00
2023-05-31T00:17:49.094Z,653.00
2023-05-31T00:18:39.354Z,654.00
2023-05-31T00:19:38.310Z,655.00
2023-05-31T00:20:38.345Z,654.00
2023-05-31T00:21:38.316Z,655.00
2023-05-31T00:22:38.249Z,655.00
2023-05-31T00:23:38.258Z,654.00
2023-05-31T00:24:38.279Z,651.00
2023-05-31T00:25:38.265Z,650.00
2023-05-31T00:26:38.253Z,655.00
2023-05-31T00:27:38.205Z,646.00
2023-05-31T00:28:38.212Z,641.00
2023-05-31T00:29:38.229Z,641.00
2023-05-31T00:30:38.358Z,646.00
2023-05-31T00:31:38.318Z,648.00
2023-05-31T00:32:38.425Z,646.00
2023-05-31T00:33:38.446Z,641.00
2023-05-31T00:34:38.506Z,645.00
2023-05-31T00:35:38.513Z,647.00
2023-05-31T00:36:38.556Z,642.00
2023-05-31T00:37:38.672Z,643.00
2023-05-31T00:38:38.653Z,637.00
2023-05-31T00:39:38.703Z,642.00
2023-05-31T00:40:38.760Z,641.00
2023-05-31T00:41:38.808Z,638.00
2023-05-31T00:42:38.831Z,640.00
2023-05-31T00:43:38.890Z,639.00
2023-05-31T00:44:38.914Z,638.00
2023-05-31T00:45:38.990Z,637.00
2023-05-31T00:46:39.057Z,637.00
2023-05-31T00:47:39.116Z,634.00
2023-05-31T00:48:39.147Z,640.00
2023-05-31T00:49:39.173Z,635.00
2023-05-31T00:50:39.175Z,639.00
2023-05-31T00:51:39.250Z,639.00
2023-05-31T00:52:39.310Z,638.00
2023-05-31T00:53:39.348Z,635.00
2023-05-31T00:54:39.412Z,640.00
2023-05-31T00:55:39.486Z,635.00
2023-05-31T00:56:39.524Z,632.00
2023-05-31T00:57:39.521Z,639.00
2023-05-31T00:58:39.597Z,634.00
2023-05-31T00:59:39.624Z,637.00
2023-05-31T01:00:39.720Z,634.00
2023-05-31T01:01:39.810Z,634.00
2023-05-31T01:02:39.906Z,632.00
2023-05-31T01:03:39.906Z,632.00
2023-05-31T01:04:39.927Z,631.00
2023-05-31T01:05:39.987Z,628.00
2023-05-31T01:06:39.996Z,631.00
2023-05-31T01:07:40.074Z,631.00
2023-05-31T01:08:40.133Z,633.00
2023-05-31T01:09:40.137Z,632.00
2023-05-31T01:10:40.220Z,631.00
2023-05-31T01:11:40.304Z,635.00
2023-05-31T01:12:40.322Z,630.00
2023-05-31T01:13:40.376Z,630.00
2023-05-31T01:14:40.391Z,629.00
2023-05-31T01:15:40.464Z,631.00
2023-05-31T01:16:40.699Z,630.00
2023-05-31T01:17:40.622Z,626.00
2023-05-31T01:18:40.598Z,631.00
2023-05-31T01:19:40.747Z,622.00
2023-05-31T01:20:40.759Z,627.00
2023-05-31T01:21:40.770Z,627.00
2023-05-31T01:22:40.851Z,628.00
2023-05-31T01:23:40.900Z,625.00
2023-05-31T01:24:40.947Z,623.00
2023-05-31T01:25:40.990Z,627.00
2023-05-31T01:26:41.040Z,621.00
2023-05-31T01:27:41.080Z,624.00
2023-05-31T01:28:41.131Z,624.00
2023-05-31T01:29:41.185Z,624.00
2023-05-31T01:30:41.257Z,622.00
2023-05-31T01:31:41.317Z,623.00
2023-05-31T01:32:41.349Z,624.00
2023-05-31T01:33:41.346Z,624.00
2023-05-31T01:34:41.402Z,624.00
2023-05-31T01:35:41.470Z,617.00
2023-05-31T01:36:41.514Z,621.00
2023-05-31T01:37:41.540Z,619.00
2023-05-31T01:38:41.623Z,620.00
2023-05-31T01:39:41.640Z,620.00
2023-05-31T01:40:41.724Z,621.00
2023-05-31T01:41:41.740Z,616.00
2023-05-31T01:42:41.806Z,618.00
2023-05-31T01:43:41.877Z,619.00
2023-05-31T01:44:41.883Z,622.00
2023-05-31T01:45:41.972Z,620.00
2023-05-31T01:46:41.994Z,617.00
2023-05-31T01:47:42.045Z,618.00
2023-05-31T01:48:42.060Z,621.00
2023-05-31T01:49:42.132Z,617.00
2023-05-31T01:50:42.209Z,614.00
2023-05-31T01:51:42.210Z,617.00
2023-05-31T01:52:42.258Z,613.00
2023-05-31T01:53:42.348Z,614.00
2023-05-31T01:54:42.363Z,617.00
2023-05-31T01:55:42.432Z,616.00
2023-05-31T01:56:42.499Z,612.00
2023-05-31T01:57:42.510Z,607.00
2023-05-31T01:58:42.602Z,610.00
2023-05-31T01:59:42.666Z,615.00
2023-05-31T02:00:42.652Z,612.00
2023-05-31T02:01:42.831Z,613.00
2023-05-31T02:02:42.833Z,619.00
2023-05-31T02:03:42.871Z,611.00
2023-05-31T02:04:42.900Z,609.00
2023-05-31T02:05:42.927Z,614.00
2023-05-31T02:06:42.985Z,610.00
2023-05-31T02:07:43.097Z,612.00
2023-05-31T02:08:43.111Z,613.00
2023-05-31T02:09:43.136Z,613.00
2023-05-31T02:10:43.194Z,610.00
2023-05-31T02:11:43.216Z,611.00
2023-05-31T02:12:43.317Z,610.00
2023-05-31T02:13:43.370Z,608.00
2023-05-31T02:14:43.423Z,606.00
2023-05-31T02:15:43.416Z,608.00
2023-05-31T02:16:43.517Z,606.00
2023-05-31T02:17:43.704Z,607.00
2023-05-31T02:18:43.569Z,605.00
2023-05-31T02:19:43.612Z,605.00
2023-05-31T02:20:43.691Z,607.00
2023-05-31T02:21:43.746Z,604.00
2023-05-31T02:22:43.779Z,608.00
2023-05-31T02:23:43.832Z,606.00
2023-05-31T02:24:43.890Z,608.00
2023-05-31T02:25:43.899Z,609.00
2023-05-31T02:26:43.936Z,605.00
2023-05-31T02:27:44.039Z,605.00
2023-05-31T02:28:44.033Z,604.00
2023-05-31T02:29:44.079Z,596.00
2023-05-31T02:30:44.094Z,605.00
2023-05-31T02:31:44.191Z,600.00
2023-05-31T02:32:44.219Z,605.00
2023-05-31T02:33:44.237Z,602.00
2023-05-31T02:34:44.266Z,604.00
2023-05-31T02:35:44.299Z,591.00
2023-05-31T02:36:44.698Z,602.00
2023-05-31T02:37:44.390Z,602.00
2023-05-31T02:38:44.434Z,599.00
2023-05-31T02:39:44.528Z,597.00
2023-05-31T02:40:44.538Z,602.00
2023-05-31T02:41:44.579Z,603.00
2023-05-31T02:42:44.633Z,600.00
2023-05-31T02:43:44.665Z,596.00
2023-05-31T02:44:44.711Z,599.00
2023-05-31T02:45:44.804Z,595.00
2023-05-31T02:46:44.993Z,603.00
2023-05-31T02:47:44.891Z,595.00
2023-05-31T02:48:44.927Z,598.00
2023-05-31T02:49:44.936Z,598.00
2023-05-31T02:50:44.990Z,600.00
2023-05-31T02:51:45.022Z,596.00
2023-05-31T02:52:45.077Z,591.00
2023-05-31T02:53:45.114Z,604.00
2023-05-31T02:54:45.149Z,598.00
2023-05-31T02:55:45.234Z,597.00
2023-05-31T02:56:45.277Z,598.00
2023-05-31T02:57:45.325Z,594.00
2023-05-31T02:58:45.350Z,596.00
2023-05-31T02:59:45.422Z,594.00
2023-05-31T03:00:45.461Z,596.00
2023-05-31T03:01:45.540Z,593.00
2023-05-31T03:02:45.699Z,592.00
2023-05-31T03:03:45.656Z,591.00
2023-05-31T03:04:45.677Z,594.00
2023-05-31T03:05:45.710Z,591.00
2023-05-31T03:06:45.760Z,590.00
2023-05-31T03:07:45.802Z,589.00
2023-05-31T03:08:45.878Z,590.00
2023-05-31T03:09:45.913Z,592.00
2023-05-31T03:10:45.954Z,589.00
2023-05-31T03:11:46.017Z,593.00
2023-05-31T03:12:46.075Z,600.00
2023-05-31T03:13:46.115Z,591.00
2023-05-31T03:14:46.191Z,592.00
2023-05-31T03:15:46.256Z,589.00
2023-05-31T03:16:46.413Z,590.00
2023-05-31T03:17:46.364Z,597.00
2023-05-31T03:18:46.390Z,590.00
2023-05-31T03:19:46.429Z,585.00
2023-05-31T03:20:46.513Z,587.00
2023-05-31T03:21:46.566Z,594.00
2023-05-31T03:22:46.571Z,587.00
2023-05-31T03:23:46.623Z,589.00
2023-05-31T03:24:46.679Z,586.00
2023-05-31T03:25:46.730Z,583.00
2023-05-31T03:26:46.773Z,585.00
2023-05-31T03:27:46.847Z,587.00
2023-05-31T03:28:46.910Z,585.00
2023-05-31T03:29:46.946Z,593.00
2023-05-31T03:30:46.968Z,584.00
2023-05-31T03:31:47.046Z,586.00
2023-05-31T03:32:47.081Z,586.00
2023-05-31T03:33:47.164Z,586.00
2023-05-31T03:34:47.189Z,584.00
2023-05-31T03:35:47.225Z,586.00
2023-05-31T03:36:47.315Z,584.00
2023-05-31T03:37:47.338Z,585.00
2023-05-31T03:38:47.378Z,584.00
2023-05-31T03:39:47.449Z,587.00
2023-05-31T03:40:47.504Z,585.00
2023-05-31T03:41:47.601Z,584.00
2023-05-31T03:42:47.615Z,580.00
2023-05-31T03:43:47.660Z,578.00
2023-05-31T03:44:47.709Z,582.00
2023-05-31T03:45:47.773Z,581.00
2023-05-31T03:46:47.794Z,580.00
2023-05-31T03:47:47.879Z,577.00
2023-05-31T03:48:47.939Z,580.00
2023-05-31T03:49:47.979Z,586.00
2023-05-31T03:50:48.051Z,579.00
2023-05-31T03:51:48.079Z,580.00
2023-05-31T03:52:48.113Z,582.00
2023-05-31T03:53:48.150Z,575.00
2023-05-31T03:54:48.214Z,581.00
2023-05-31T03:55:48.265Z,579.00
2023-05-31T03:56:48.326Z,570.00
2023-05-31T03:57:48.395Z,575.00
2023-05-31T03:58:48.449Z,579.00
2023-05-31T03:59:48.471Z,580.00
2023-05-31T04:00:48.497Z,576.00
2023-05-31T04:01:48.602Z,578.00
2023-05-31T04:03:00.129Z,576.00
2023-05-31T04:03:49.762Z,576.00
2023-05-31T04:04:48.891Z,577.00
2023-05-31T04:05:48.587Z,577.00
2023-05-31T04:06:48.600Z,577.00
2023-05-31T04:07:48.578Z,576.00
2023-05-31T04:08:48.563Z,578.00
2023-05-31T04:09:48.567Z,576.00
2023-05-31T04:10:48.579Z,567.00
2023-05-31T04:11:48.580Z,578.00
2023-05-31T04:12:48.552Z,578.00
2023-05-31T04:13:48.540Z,574.00
2023-05-31T04:14:48.608Z,577.00
2023-05-31T04:15:48.661Z,572.00
2023-05-31T04:16:48.705Z,574.00
2023-05-31T04:17:48.887Z,572.00
2023-05-31T04:18:48.793Z,572.00
2023-05-31T04:19:48.853Z,571.00
2023-05-31T04:20:48.966Z,574.00
2023-05-31T04:21:48.957Z,572.00
2023-05-31T04:22:48.980Z,565.00
2023-05-31T04:24:49.079Z,569.00
2023-05-31T04:25:49.205Z,566.00
2023-05-31T04:26:49.200Z,566.00
2023-05-31T04:27:49.249Z,567.00
2023-05-31T04:28:49.284Z,571.00
2023-05-31T04:29:49.311Z,574.00
2023-05-31T04:30:49.479Z,573.00
2023-05-31T04:31:51.180Z,562.00
2023-05-31T04:32:49.706Z,570.00
2023-05-31T04:33:49.766Z,563.00
2023-05-31T04:34:49.780Z,570.00
2023-05-31T04:35:49.832Z,564.00
2023-05-31T04:36:50.219Z,566.00
2023-05-31T04:37:49.961Z,564.00
2023-05-31T04:38:50.004Z,564.00
2023-05-31T04:39:50.044Z,565.00
2023-05-31T04:40:50.080Z,565.00
2023-05-31T04:41:50.127Z,561.00
2023-05-31T04:42:50.165Z,564.00
2023-05-31T04:43:50.225Z,557.00
2023-05-31T04:44:50.268Z,560.00
2023-05-31T04:45:50.351Z,565.00
2023-05-31T04:46:50.409Z,563.00
2023-05-31T04:47:50.472Z,560.00
2023-05-31T04:48:50.503Z,563.00
2023-05-31T04:49:54.842Z,563.00
2023-05-31T04:50:50.521Z,563.00
2023-05-31T04:51:50.516Z,563.00
2023-05-31T04:52:50.527Z,564.00
2023-05-31T04:53:50.505Z,559.00
2023-05-31T04:54:50.507Z,560.00
2023-05-31T04:55:50.493Z,559.00
2023-05-31T04:56:50.474Z,560.00
2023-05-31T04:57:50.510Z,558.00
2023-05-31T04:58:50.476Z,562.00
2023-05-31T04:59:50.457Z,559.00
2023-05-31T05:00:50.497Z,559.00
2023-05-31T05:01:50.449Z,558.00
2023-05-31T05:02:50.515Z,556.00
2023-05-31T05:03:50.527Z,558.00
2023-05-31T05:04:50.543Z,554.00
2023-05-31T05:05:50.549Z,556.00
2023-05-31T05:06:50.655Z,556.00
2023-05-31T05:07:50.676Z,548.00
2023-05-31T05:08:50.710Z,551.00
2023-05-31T05:09:50.759Z,553.00
2023-05-31T05:10:50.779Z,555.00
2023-05-31T05:11:50.843Z,552.00
2023-05-31T05:12:50.864Z,556.00
2023-05-31T05:13:52.258Z,558.00
2023-05-31T05:14:50.970Z,556.00
2023-05-31T05:15:51.025Z,558.00
2023-05-31T05:16:51.121Z,550.00
2023-05-31T05:17:51.138Z,556.00
2023-05-31T05:18:51.172Z,556.00
2023-05-31T05:19:51.189Z,555.00
2023-05-31T05:20:51.379Z,558.00
2023-05-31T05:21:51.277Z,556.00
2023-05-31T05:22:51.341Z,551.00
2023-05-31T05:23:51.384Z,552.00
2023-05-31T05:24:51.402Z,553.00
2023-05-31T05:25:51.455Z,552.00
2023-05-31T05:26:51.451Z,559.00
2023-05-31T05:27:51.518Z,550.00
2023-05-31T05:28:51.588Z,553.00
2023-05-31T05:29:51.611Z,551.00
2023-05-31T05:30:51.665Z,550.00
2023-05-31T05:31:51.680Z,544.00
2023-05-31T05:32:51.736Z,548.00
2023-05-31T05:33:51.766Z,545.00
2023-05-31T05:34:51.806Z,546.00
2023-05-31T05:35:51.845Z,548.00
2023-05-31T05:36:51.899Z,548.00
2023-05-31T05:37:51.939Z,550.00
2023-05-31T05:38:51.946Z,552.00
2023-05-31T05:39:52.031Z,550.00
2023-05-31T05:40:52.061Z,548.00
2023-05-31T05:41:52.094Z,550.00
2023-05-31T05:42:52.138Z,546.00
2023-05-31T05:43:52.187Z,542.00
2023-05-31T05:44:52.231Z,534.00
2023-05-31T05:45:52.277Z,535.00
2023-05-31T05:46:52.391Z,538.00
2023-05-31T05:47:52.405Z,532.00
2023-05-31T05:48:52.404Z,506.00
2023-05-31T05:49:52.438Z,500.00
2023-05-31T05:50:52.513Z,504.00
2023-05-31T05:51:52.556Z,505.00
2023-05-31T05:52:52.596Z,499.00
2023-05-31T05:53:52.580Z,500.00
2023-05-31T05:54:52.671Z,517.00
2023-05-31T05:55:52.701Z,500.00
2023-05-31T05:56:52.761Z,505.00
2023-05-31T05:57:52.786Z,510.00
2023-05-31T05:58:52.792Z,502.00
2023-05-31T05:59:52.848Z,521.00
2023-05-31T06:00:52.837Z,538.00
2023-05-31T06:01:52.857Z,567.00
2023-05-31T06:02:52.975Z,585.00
2023-05-31T06:03:52.943Z,592.00
2023-05-31T06:04:52.920Z,551.00
2023-05-31T06:05:52.977Z,498.00
2023-05-31T06:06:52.953Z,510.00
2023-05-31T06:07:53.003Z,616.00
2023-05-31T06:08:53.052Z,579.00
2023-05-31T06:09:53.074Z,536.00
2023-05-31T06:10:53.113Z,507.00
2023-05-31T06:11:53.164Z,501.00
2023-05-31T06:12:53.169Z,504.00
2023-05-31T06:13:53.214Z,521.00
2023-05-31T06:14:55.384Z,525.00
2023-05-31T06:15:53.271Z,520.00
2023-05-31T06:16:53.347Z,513.00
2023-05-31T06:17:53.344Z,505.00
2023-05-31T06:18:53.352Z,510.00
2023-05-31T06:19:53.390Z,515.00
2023-05-31T06:20:53.501Z,508.00
2023-05-31T06:21:53.777Z,549.00
2023-05-31T06:22:53.442Z,567.00
2023-05-31T06:23:53.456Z,548.00
2023-05-31T06:24:53.474Z,510.00
2023-05-31T06:25:53.510Z,500.00
2023-05-31T06:26:53.475Z,499.00
2023-05-31T06:27:53.499Z,506.00
2023-05-31T06:28:53.488Z,501.00
2023-05-31T06:29:53.506Z,522.00
2023-05-31T06:30:53.524Z,500.00
2023-05-31T06:31:53.599Z,500.00
2023-05-31T06:32:53.608Z,500.00
2023-05-31T06:33:53.594Z,529.00
2023-05-31T06:34:53.591Z,546.00
2023-05-31T06:35:53.581Z,571.00
2023-05-31T06:36:53.644Z,579.00
2023-05-31T06:37:53.616Z,566.00
2023-05-31T06:38:53.612Z,566.00
2023-05-31T06:39:53.619Z,591.00
2023-05-31T06:40:53.619Z,598.00
2023-05-31T06:41:53.620Z,577.00
2023-05-31T06:42:53.615Z,573.00
2023-05-31T06:43:53.593Z,592.00
2023-05-31T06:44:56.785Z,622.00
2023-05-31T06:45:53.615Z,644.00
2023-05-31T06:46:53.648Z,668.00
2023-05-31T06:47:53.659Z,626.00
2023-05-31T06:49:00.483Z,620.00
2023-05-31T06:49:54.596Z,621.00
2023-05-31T06:50:53.606Z,627.00
2023-05-31T06:51:53.586Z,648.00
2023-05-31T06:52:53.575Z,732.00
2023-05-31T06:53:53.585Z,867.00
2023-05-31T06:54:53.589Z,934.00
2023-05-31T06:55:53.539Z,991.00
2023-05-31T06:56:53.576Z,1037.00
2023-05-31T06:57:53.540Z,1044.00
2023-05-31T06:58:53.525Z,1009.00
2023-05-31T06:59:53.539Z,1051.00
2023-05-31T07:00:53.576Z,1062.00
2023-05-31T07:01:53.707Z,1113.00
2023-05-31T07:02:53.699Z,1131.00
2023-05-31T07:03:53.697Z,1144.00
2023-05-31T07:04:53.699Z,1161.00
2023-05-31T07:05:53.769Z,1105.00
2023-05-31T07:06:53.796Z,951.00
2023-05-31T07:07:53.844Z,835.00
2023-05-31T07:08:53.878Z,723.00
2023-05-31T07:09:53.923Z,647.00
2023-05-31T07:10:53.953Z,638.00
2023-05-31T07:11:54.017Z,657.00
2023-05-31T07:12:54.065Z,715.00
2023-05-31T07:13:54.126Z,835.00
2023-05-31T07:14:54.160Z,897.00
2023-05-31T07:15:54.249Z,933.00
2023-05-31T07:16:54.290Z,991.00
2023-05-31T07:17:54.400Z,1052.00
2023-05-31T07:18:54.363Z,1099.00
2023-05-31T07:19:54.387Z,1130.00
2023-05-31T07:20:54.495Z,1146.00
2023-05-31T07:21:54.857Z,1160.00
2023-05-31T07:22:54.470Z,1194.00
2023-05-31T07:23:54.439Z,1209.00
2023-05-31T07:24:54.522Z,1238.00
2023-05-31T07:25:54.536Z,1248.00
2023-05-31T07:26:54.529Z,1266.00
2023-05-31T07:27:54.592Z,1276.00
2023-05-31T07:28:54.708Z,1287.00
2023-05-31T07:29:54.652Z,1282.00
2023-05-31T07:30:54.656Z,1291.00
2023-05-31T07:31:54.709Z,1296.00
2023-05-31T07:32:54.858Z,1304.00
2023-05-31T07:33:54.806Z,1340.00
2023-05-31T07:35:03.979Z,1356.00
2023-05-31T07:35:58.467Z,1359.00
2023-05-31T07:36:54.798Z,1360.00
2023-05-31T07:37:54.810Z,1373.00
2023-05-31T07:38:54.817Z,1402.00
2023-05-31T07:39:54.780Z,1458.00
2023-05-31T07:40:54.762Z,1536.00
2023-05-31T07:41:54.839Z,1570.00
2023-05-31T07:42:54.791Z,1581.00
2023-05-31T07:43:54.751Z,1609.00
2023-05-31T07:44:54.746Z,1634.00
2023-05-31T07:45:54.728Z,1667.00
2023-05-31T07:46:54.781Z,1683.00
2023-05-31T07:47:54.794Z,1710.00
2023-05-31T07:48:54.754Z,1665.00
2023-05-31T07:49:54.739Z,1633.00
2023-05-31T07:50:54.732Z,1687.00
2023-05-31T07:51:54.840Z,1581.00
2023-05-31T07:52:54.815Z,1589.00
2023-05-31T07:53:54.727Z,1585.00
2023-05-31T07:54:54.657Z,1639.00
2023-05-31T07:55:54.661Z,1713.00
2023-05-31T07:56:55.299Z,1765.00
2023-05-31T07:57:54.676Z,1847.00
2023-05-31T07:58:55.716Z,1912.00
2023-05-31T07:59:54.657Z,1893.00
2023-05-31T08:00:54.617Z,1917.00
2023-05-31T08:01:55.348Z,2034.00
2023-05-31T08:02:54.619Z,2054.00
2023-05-31T08:03:54.655Z,2107.00
2023-05-31T08:04:54.611Z,2131.00
2023-05-31T08:05:56.306Z,2210.00
2023-05-31T08:06:54.863Z,2184.00
2023-05-31T08:07:54.613Z,2276.00
2023-05-31T08:08:54.591Z,2282.00
2023-05-31T08:09:55.344Z,2265.00
2023-05-31T08:10:54.576Z,2242.00
2023-05-31T08:11:54.835Z,2224.00
2023-05-31T08:12:54.696Z,2248.00
2023-05-31T08:13:54.698Z,2292.00
2023-05-31T08:14:54.696Z,2280.00
2023-05-31T08:15:54.737Z,2226.00
2023-05-31T08:16:54.870Z,2101.00
2023-05-31T08:17:54.790Z,1639.00
2023-05-31T08:18:54.849Z,1249.00
2023-05-31T08:19:54.931Z,1236.00
2023-05-31T08:20:54.970Z,1368.00
2023-05-31T08:21:55.361Z,1441.00
2023-05-31T08:22:55.050Z,1491.00
2023-05-31T08:23:55.101Z,1503.00
2023-05-31T08:24:55.144Z,1636.00
2023-05-31T08:25:55.185Z,1676.00
2023-05-31T08:26:55.305Z,1719.00
2023-05-31T08:27:55.210Z,1789.00
2023-05-31T08:28:55.275Z,1839.00
2023-05-31T08:29:55.279Z,1829.00
2023-05-31T08:30:55.360Z,1839.00
2023-05-31T08:31:55.370Z,1854.00
2023-05-31T08:32:55.350Z,1905.00
2023-05-31T08:33:55.366Z,1961.00
2023-05-31T08:34:55.408Z,1995.00
2023-05-31T08:35:55.412Z,2016.00
2023-05-31T08:36:55.378Z,2016.00
2023-05-31T08:37:55.349Z,2034.00
2023-05-31T08:38:55.359Z,2031.00
2023-05-31T08:39:55.380Z,2050.00
2023-05-31T08:40:55.407Z,2069.00
2023-05-31T08:41:55.925Z,2101.00
2023-05-31T08:42:55.381Z,2095.00
2023-05-31T08:43:55.396Z,2103.00
2023-05-31T08:44:55.385Z,2032.00
2023-05-31T08:45:55.399Z,1993.00
2023-05-31T08:46:55.377Z,2023.00
2023-05-31T08:47:55.502Z,2018.00
2023-05-31T08:48:55.451Z,1988.00
2023-05-31T08:49:55.414Z,1949.00
2023-05-31T08:50:55.451Z,1913.00
2023-05-31T08:51:55.886Z,1858.00
2023-05-31T08:52:55.500Z,1798.00
2023-05-31T08:53:55.547Z,1823.00
2023-05-31T08:54:55.602Z,1867.00
2023-05-31T08:55:55.624Z,1885.00
2023-05-31T08:56:55.858Z,1759.00
2023-05-31T08:57:55.744Z,1761.00
2023-05-31T08:58:55.807Z,1797.00
2023-05-31T08:59:55.830Z,1801.00
2023-05-31T09:00:55.860Z,1810.00
2023-05-31T09:01:55.993Z,1849.00
2023-05-31T09:02:56.010Z,1839.00
2023-05-31T09:03:56.049Z,1906.00
2023-05-31T09:04:56.049Z,1904.00
2023-05-31T09:05:56.077Z,1911.00
2023-05-31T09:06:56.396Z,1939.00
2023-05-31T09:07:56.192Z,1965.00
2023-05-31T09:08:56.238Z,1966.00
2023-05-31T09:09:56.316Z,1983.00
2023-05-31T09:10:56.381Z,2038.00
2023-05-31T09:11:56.337Z,2024.00
2023-05-31T09:12:56.390Z,2049.00
2023-05-31T09:13:56.455Z,2095.00
2023-05-31T09:14:56.496Z,2092.00
2023-05-31T09:15:56.572Z,2076.00
2023-05-31T09:16:56.661Z,2120.00
2023-05-31T09:17:56.635Z,2187.00
2023-05-31T09:18:56.682Z,2132.00
2023-05-31T09:19:56.750Z,2171.00
2023-05-31T09:20:56.845Z,2188.00
2023-05-31T09:21:56.812Z,2228.00
2023-05-31T09:22:56.821Z,2233.00
2023-05-31T09:23:56.869Z,2252.00
2023-05-31T09:24:56.930Z,2300.00
2023-05-31T09:25:56.952Z,2330.00
2023-05-31T09:26:56.996Z,2341.00
2023-05-31T09:27:57.042Z,2356.00
2023-05-31T09:28:57.072Z,2406.00
2023-05-31T09:29:57.076Z,2422.00
2023-05-31T09:30:57.179Z,2428.00
2023-05-31T09:31:57.434Z,2408.00
2023-05-31T09:32:57.221Z,2433.00
2023-05-31T09:33:57.246Z,2452.00
2023-05-31T09:34:57.434Z,2473.00
2023-05-31T09:35:57.379Z,2455.00
2023-05-31T09:36:57.902Z,2452.00
2023-05-31T09:37:57.408Z,2462.00
2023-05-31T09:38:57.458Z,2529.00
2023-05-31T09:39:57.474Z,2535.00
2023-05-31T09:40:57.526Z,2534.00
2023-05-31T09:41:57.549Z,2552.00
2023-05-31T09:42:57.621Z,2561.00
2023-05-31T09:43:57.624Z,2581.00
2023-05-31T09:44:57.668Z,2595.00
2023-05-31T09:45:57.728Z,2596.00
2023-05-31T09:46:57.957Z,2634.00
2023-05-31T09:47:57.786Z,2620.00
2023-05-31T09:48:57.764Z,2610.00
2023-05-31T09:49:57.834Z,2617.00
2023-05-31T09:50:58.049Z,2534.00
2023-05-31T09:51:57.897Z,2398.00
2023-05-31T09:52:57.923Z,2429.00
2023-05-31T09:53:57.955Z,2437.00
2023-05-31T09:54:58.035Z,2474.00
2023-05-31T09:55:58.062Z,2429.00
2023-05-31T09:56:58.377Z,2457.00
2023-05-31T09:57:58.169Z,2433.00
2023-05-31T09:58:58.187Z,2410.00
2023-05-31T09:59:58.295Z,2385.00
2023-05-31T10:00:58.459Z,2373.00
2023-05-31T10:01:58.455Z,2313.00
2023-05-31T10:02:58.443Z,2299.00
2023-05-31T10:03:58.417Z,2268.00
2023-05-31T10:04:58.497Z,2283.00
2023-05-31T10:05:58.542Z,2279.00
2023-05-31T10:06:58.897Z,2247.00
2023-05-31T10:07:58.675Z,2223.00
2023-05-31T10:08:58.714Z,2212.00
2023-05-31T10:09:58.755Z,2189.00
2023-05-31T10:10:59.042Z,2149.00
2023-05-31T10:11:58.917Z,2155.00
2023-05-31T10:13:00.189Z,2148.00
2023-05-31T10:13:58.919Z,2133.00
2023-05-31T10:14:58.871Z,2131.00
2023-05-31T10:15:58.920Z,2118.00
2023-05-31T10:16:59.392Z,2104.00
2023-05-31T10:17:58.915Z,2094.00
2023-05-31T10:18:58.881Z,2076.00
2023-05-31T10:19:58.904Z,2074.00
2023-05-31T10:20:59.052Z,2059.00
2023-05-31T10:21:58.895Z,2049.00
2023-05-31T10:22:58.871Z,2050.00
2023-05-31T10:23:58.870Z,2030.00
2023-05-31T10:24:58.840Z,2028.00
2023-05-31T10:25:58.797Z,2020.00
2023-05-31T10:26:58.831Z,2015.00
2023-05-31T10:27:58.788Z,1998.00
2023-05-31T10:28:58.793Z,2003.00
2023-05-31T10:29:58.817Z,1999.00
2023-05-31T10:30:59.024Z,1985.00
2023-05-31T10:31:58.915Z,1977.00
2023-05-31T10:32:58.867Z,1968.00
2023-05-31T10:33:58.778Z,1965.00
2023-05-31T10:34:58.815Z,1952.00
2023-05-31T10:35:58.762Z,1940.00
2023-05-31T10:36:58.899Z,1931.00
2023-05-31T10:37:58.758Z,1941.00
2023-05-31T10:38:58.754Z,1920.00
2023-05-31T10:39:58.777Z,1912.00
2023-05-31T10:40:58.848Z,1909.00
2023-05-31T10:41:58.967Z,1906.00
2023-05-31T10:42:58.918Z,1901.00
2023-05-31T10:43:58.753Z,1883.00
2023-05-31T10:44:58.699Z,1888.00
2023-05-31T10:45:58.680Z,1878.00
2023-05-31T10:46:58.926Z,1881.00
2023-05-31T10:47:58.767Z,1882.00
2023-05-31T10:48:58.685Z,1893.00
2023-05-31T10:49:58.664Z,1906.00
2023-05-31T10:50:58.900Z,1907.00
2023-05-31T10:51:58.895Z,1904.00
2023-05-31T10:52:58.626Z,1914.00
2023-05-31T10:53:58.642Z,1916.00
2023-05-31T10:54:58.614Z,1906.00
2023-05-31T10:55:58.615Z,1903.00
2023-05-31T10:56:58.938Z,1901.00
2023-05-31T10:57:58.595Z,1907.00
2023-05-31T10:58:58.562Z,1904.00
2023-05-31T10:59:58.569Z,1904.00
2023-05-31T11:00:58.902Z,1892.00
2023-05-31T11:01:58.551Z,1900.00
2023-05-31T11:02:58.631Z,1896.00
2023-05-31T11:03:58.599Z,1882.00
2023-05-31T11:04:58.544Z,1889.00
2023-05-31T11:05:58.558Z,1897.00
2023-05-31T11:06:58.990Z,1889.00
2023-05-31T11:07:58.520Z,1889.00
2023-05-31T11:08:58.500Z,1889.00
2023-05-31T11:09:58.522Z,1871.00
2023-05-31T11:10:58.778Z,1880.00
2023-05-31T11:11:58.899Z,1878.00
2023-05-31T11:12:58.633Z,1889.00
2023-05-31T11:13:58.671Z,1872.00
2023-05-31T11:14:58.683Z,1872.00
2023-05-31T11:15:58.773Z,1878.00
2023-05-31T11:16:58.907Z,1883.00
2023-05-31T11:17:58.907Z,1873.00
2023-05-31T11:18:58.856Z,1874.00
2023-05-31T11:19:58.869Z,1868.00
2023-05-31T11:20:59.022Z,1869.00
2023-05-31T11:21:58.951Z,1865.00
2023-05-31T11:22:58.962Z,1859.00
2023-05-31T11:23:58.992Z,1863.00
2023-05-31T11:24:59.001Z,1872.00
2023-05-31T11:25:59.118Z,1863.00
2023-05-31T11:26:59.427Z,1880.00
2023-05-31T11:27:59.150Z,1854.00
2023-05-31T11:28:59.179Z,1863.00
2023-05-31T11:29:59.244Z,1854.00
2023-05-31T11:30:59.422Z,1844.00
2023-05-31T11:31:59.371Z,1838.00
2023-05-31T11:32:59.332Z,1832.00
2023-05-31T11:33:59.298Z,1825.00
2023-05-31T11:34:59.331Z,1820.00
2023-05-31T11:35:59.318Z,1815.00
2023-05-31T11:36:59.363Z,1803.00
2023-05-31T11:37:59.320Z,1794.00
2023-05-31T11:38:59.341Z,1804.00
2023-05-31T11:39:59.338Z,1799.00
2023-05-31T11:40:59.447Z,1775.00
2023-05-31T11:41:59.306Z,1771.00
2023-05-31T11:42:59.302Z,1766.00
2023-05-31T11:43:59.300Z,1753.00
2023-05-31T11:44:59.302Z,1765.00
2023-05-31T11:45:59.294Z,1755.00
2023-05-31T11:46:59.306Z,1756.00
2023-05-31T11:47:59.286Z,1755.00
2023-05-31T11:48:59.280Z,1750.00
2023-05-31T11:49:59.263Z,1746.00
2023-05-31T11:50:59.564Z,1735.00
2023-05-31T11:51:59.248Z,1731.00
2023-05-31T11:52:59.488Z,1728.00
2023-05-31T11:53:59.284Z,1720.00
2023-05-31T11:54:59.246Z,1723.00
2023-05-31T11:55:59.258Z,1712.00
2023-05-31T11:56:59.298Z,1715.00
2023-05-31T11:57:59.298Z,1718.00
2023-05-31T11:58:59.297Z,1717.00
2023-05-31T11:59:59.305Z,1723.00
2023-05-31T12:00:59.431Z,1699.00
2023-05-31T12:01:59.322Z,1700.00
2023-05-31T12:02:59.325Z,1701.00
2023-05-31T12:03:59.360Z,1701.00
2023-05-31T12:04:59.288Z,1707.00
2023-05-31T12:05:59.328Z,1693.00
2023-05-31T12:06:59.309Z,1703.00
2023-05-31T12:07:59.347Z,1685.00
2023-05-31T12:08:59.322Z,1683.00
2023-05-31T12:09:59.351Z,1684.00
2023-05-31T12:10:59.538Z,1674.00
2023-05-31T12:11:59.458Z,1688.00
2023-05-31T12:13:01.242Z,1661.00
2023-05-31T12:13:59.415Z,1662.00
2023-05-31T12:14:59.383Z,1664.00
2023-05-31T12:15:59.414Z,1666.00
2023-05-31T12:16:59.376Z,1667.00
2023-05-31T12:17:59.485Z,1671.00
2023-05-31T12:18:59.382Z,1667.00
2023-05-31T12:19:59.389Z,1651.00
2023-05-31T12:20:59.833Z,1650.00